Main page
METAR-TAF:

METAR-TAF

Airports :

Mar del Plata, Argentina

Astor Piazzolla International Airport

latitude: 37-56S, longitude: 057-35W, elevation: 18 m

Current weather observation

The report was made 54 minutes ago, at 17:00 UTC
Wind 7 kt from the West/Southwest
Temperature 21°C
Humidity 53%
Pressure 1013 hPa
Visibility 10 km or more
no clouds below 1500 m and no cumulonimbus

METAR: SAZM 281700Z 25007KT CAVOK 21/11 Q1013

Time: 14:54 (17:54 UTC)

Forecast

The report was made 6 hours and 54 minutes ago, at 11:00 UTC
Forecast valid from 28 at 12 UTC to 29 at 12 UTC
Wind 10 kt from the West
Visibility 10 km or more
no clouds below 1500 m and no cumulonimbus

TAF: SAZM 281100Z 2812/2912 27010KT CAVOK TX20/2818Z TN12/2910Z

Weather observations and forecasts of more than 4000 airports (METAR and TAF reports).

The available stations are represented by yellow and red dots on the map.

Hover mouse over dot to see the name of the station.

Then click to see weather observations and forecasts.

To change the map : click on the green buttons with a black cross to zoom in, on the green button with a dash to zoom out, or on the green arrows for adjacent maps.


METAR-TAF: